Time,TemperatureF,DewpointF,PressureIn,WindDirection,WindDirectionDegrees,WindSpeedMPH,WindSpeedGustMPH,Humidity,HourlyPrecipIn,Conditions,Clouds,dailyrainin,SoftwareType,DateUTC
2013-06-09 00:04:00,68.2,60.4,29.81,South,180,3.6,4.9,76,0.00,,,0.00,WUHU216HW,2013-06-09 05:04:00,
2013-06-09 00:09:00,68.2,60.4,29.81,South,180,4.3,4.3,76,0.00,,,0.00,WUHU216HW,2013-06-09 05:09:00,
2013-06-09 00:14:00,68.2,60.4,29.81,SSW,203,4.7,4.7,76,0.00,,,0.00,WUHU216HW,2013-06-09 05:14:00,
2013-06-09 00:19:00,68.4,60.6,29.81,SSW,203,3.4,4.7,76,0.00,,,0.00,WUHU216HW,2013-06-09 05:19:00,
2013-06-09 00:24:00,68.4,60.6,29.81,SSW,203,2.5,4.7,76,0.00,,,0.00,WUHU216HW,2013-06-09 05:24:00,
2013-06-09 00:29:00,68.0,59.9,29.81,South,180,2.2,3.4,75,0.00,,,0.00,WUHU216HW,2013-06-09 05:29:00,
2013-06-09 00:34:00,68.0,59.9,29.80,South,180,2.7,2.7,75,0.00,,,0.00,WUHU216HW,2013-06-09 05:34:00,
2013-06-09 00:39:00,68.0,59.9,29.80,South,180,2.7,2.7,75,0.00,,,0.00,WUHU216HW,2013-06-09 05:39:00,
2013-06-09 00:44:00,68.0,59.9,29.80,SSW,203,3.4,3.4,75,0.00,,,0.00,WUHU216HW,2013-06-09 05:44:00,
2013-06-09 00:49:00,67.9,60.0,29.80,SSW,203,1.6,3.4,76,0.00,,,0.00,WUHU216HW,2013-06-09 05:49:00,
2013-06-09 00:54:00,68.0,60.2,29.81,NNW,338,0.0,2.2,76,0.00,,,0.00,WUHU216HW,2013-06-09 05:54:00,
2013-06-09 00:59:00,67.7,60.2,29.81,NNE,23,0.7,1.6,77,0.00,,,0.00,WUHU216HW,2013-06-09 05:59:00,
2013-06-09 01:04:00,68.0,60.6,29.80,South,180,1.1,6.9,77,0.00,,,0.00,WUHU216HW,2013-06-09 06:04:00,
2013-06-09 01:09:00,68.2,60.4,29.80,South,180,2.9,6.9,76,0.00,,,0.00,WUHU216HW,2013-06-09 06:09:00,
2013-06-09 01:14:00,68.8,60.5,29.80,SSW,203,0.9,2.9,75,0.00,,,0.00,WUHU216HW,2013-06-09 06:14:00,
2013-06-09 01:19:00,68.6,60.3,29.80,NW,315,0.2,1.1,75,0.00,,,0.00,WUHU216HW,2013-06-09 06:19:00,
2013-06-09 01:24:00,68.6,60.3,29.79,NW,315,0.0,0.9,75,0.00,,,0.00,WUHU216HW,2013-06-09 06:24:00,
2013-06-09 01:29:00,68.6,60.3,29.80,NNW,338,0.2,0.2,75,0.00,,,0.00,WUHU216HW,2013-06-09 06:29:00,
2013-06-09 01:34:00,68.2,60.4,29.80,South,180,4.0,4.0,76,0.00,,,0.00,WUHU216HW,2013-06-09 06:34:00,
2013-06-09 01:39:00,68.2,60.8,29.80,SW,225,4.0,4.0,77,0.00,,,0.00,WUHU216HW,2013-06-09 06:39:00,
2013-06-09 01:44:00,68.4,60.6,29.80,SSW,203,1.1,4.0,76,0.00,,,0.00,WUHU216HW,2013-06-09 06:44:00,
2013-06-09 01:49:00,68.4,60.6,29.80,SE,135,6.9,6.9,76,0.00,,,0.00,WUHU216HW,2013-06-09 06:49:00,
2013-06-09 01:54:00,69.5,61.1,29.81,SSW,203,5.4,6.9,75,0.00,,,0.00,WUHU216HW,2013-06-09 06:54:00,
2013-06-09 01:59:00,69.1,61.6,29.81,SW,225,10.7,10.7,77,0.00,,,0.00,WUHU216HW,2013-06-09 06:59:00,
2013-06-09 02:04:00,66.2,61.2,29.81,SSW,203,7.8,10.7,84,0.00,,,0.00,WUHU216HW,2013-06-09 07:04:00,
2013-06-09 02:09:00,64.8,60.6,29.81,SW,225,6.7,10.7,86,0.08,,,0.09,WUHU216HW,2013-06-09 07:09:00,
2013-06-09 02:14:00,64.1,60.2,29.82,SW,225,8.5,8.5,87,0.11,,,0.11,WUHU216HW,2013-06-09 07:14:00,
2013-06-09 02:19:00,63.7,60.1,29.82,SW,225,4.5,8.5,88,0.12,,,0.12,WUHU216HW,2013-06-09 07:19:00,
2013-06-09 02:24:00,63.7,60.1,29.81,WNW,293,4.9,4.9,88,0.13,,,0.13,WUHU216HW,2013-06-09 07:24:00,
2013-06-09 02:29:00,63.7,60.5,29.81,SSW,203,2.2,4.9,89,0.13,,,0.13,WUHU216HW,2013-06-09 07:29:00,
2013-06-09 02:34:00,63.7,60.5,29.80,SSW,203,5.4,5.8,89,0.15,,,0.13,WUHU216HW,2013-06-09 07:34:00,
2013-06-09 02:39:00,63.5,60.3,29.80,SSW,203,2.5,5.8,89,0.15,,,0.16,WUHU216HW,2013-06-09 07:39:00,
2013-06-09 02:44:00,63.5,60.3,29.81,SSW,203,4.0,5.4,89,0.15,,,0.16,WUHU216HW,2013-06-09 07:44:00,
2013-06-09 02:49:00,63.4,60.5,29.81,SSW,203,4.0,4.0,90,0.16,,,0.16,WUHU216HW,2013-06-09 07:49:00,
2013-06-09 02:54:00,63.4,60.5,29.81,SSW,203,2.7,4.0,90,0.16,,,0.16,WUHU216HW,2013-06-09 07:54:00,
2013-06-09 02:59:00,63.2,60.3,29.81,SW,225,2.5,4.0,90,0.16,,,0.16,WUHU216HW,2013-06-09 07:59:00,
2013-06-09 03:04:00,63.0,60.1,29.81,SW,225,3.4,3.4,90,0.09,,,0.16,WUHU216HW,2013-06-09 08:04:00,
2013-06-09 03:09:00,63.0,60.1,29.81,SSW,203,2.7,3.4,90,0.06,,,0.18,WUHU216HW,2013-06-09 08:09:00,
2013-06-09 03:14:00,63.0,60.1,29.80,South,180,1.8,3.4,90,0.05,,,0.18,WUHU216HW,2013-06-09 08:14:00,
2013-06-09 03:19:00,63.0,60.1,29.81,SW,225,0.9,3.6,90,0.05,,,0.18,WUHU216HW,2013-06-09 08:19:00,
2013-06-09 03:24:00,62.8,59.9,29.80,SSW,203,0.9,3.6,90,0.04,,,0.18,WUHU216HW,2013-06-09 08:24:00,
2013-06-09 03:29:00,62.8,59.9,29.80,SW,225,1.8,1.8,90,0.04,,,0.18,WUHU216HW,2013-06-09 08:29:00,
2013-06-09 03:34:00,62.8,59.9,29.79,SSW,203,1.8,2.5,90,0.02,,,0.18,WUHU216HW,2013-06-09 08:34:00,
2013-06-09 03:39:00,62.6,59.8,29.79,South,180,2.0,2.5,90,0.03,,,0.18,WUHU216HW,2013-06-09 08:39:00,
2013-06-09 03:44:00,62.6,59.8,29.79,SW,225,1.1,2.0,90,0.03,,,0.20,WUHU216HW,2013-06-09 08:44:00,
2013-06-09 03:49:00,62.6,59.8,29.79,South,180,2.5,2.5,90,0.03,,,0.20,WUHU216HW,2013-06-09 08:49:00,
2013-06-09 03:54:00,62.6,59.8,29.79,SSW,203,2.2,2.5,90,0.04,,,0.21,WUHU216HW,2013-06-09 08:54:00,
2013-06-09 03:59:00,62.6,60.0,29.79,SW,225,3.4,3.4,91,0.04,,,0.21,WUHU216HW,2013-06-09 08:59:00,
2013-06-09 04:04:00,62.6,60.3,29.79,SSW,203,3.1,3.4,92,0.03,,,0.21,WUHU216HW,2013-06-09 09:04:00,
2013-06-09 04:09:00,62.6,60.3,29.79,South,180,4.3,4.3,92,0.03,,,0.21,WUHU216HW,2013-06-09 09:09:00,
2013-06-09 04:14:00,62.6,60.0,29.79,South,180,3.4,4.3,91,0.03,,,0.21,WUHU216HW,2013-06-09 09:14:00,
2013-06-09 04:19:00,62.6,60.0,29.79,South,180,3.4,4.3,91,0.03,,,0.21,WUHU216HW,2013-06-09 09:19:00,
2013-06-09 04:24:00,62.6,60.0,29.79,South,180,3.4,3.4,91,0.03,,,0.21,WUHU216HW,2013-06-09 09:24:00,
2013-06-09 04:45:00,63.0,60.7,29.79,South,180,3.1,3.1,92,0.01,,,0.21,WUHU216HW,2013-06-09 09:45:00,
2013-06-09 04:50:00,63.0,60.7,29.79,South,180,4.0,4.0,92,0.01,,,0.21,WUHU216HW,2013-06-09 09:50:00,
2013-06-09 04:55:00,63.0,60.4,29.79,South,180,5.4,5.4,91,0.00,,,0.21,WUHU216HW,2013-06-09 09:55:00,
2013-06-09 05:00:00,63.0,60.4,29.79,South,180,3.4,5.4,91,0.00,,,0.21,WUHU216HW,2013-06-09 10:00:00,
2013-06-09 05:05:00,63.0,60.4,29.80,SSW,203,3.8,5.1,91,0.00,,,0.21,WUHU216HW,2013-06-09 10:05:00,
2013-06-09 05:10:00,63.0,60.4,29.79,South,180,2.9,3.8,91,0.00,,,0.21,WUHU216HW,2013-06-09 10:10:00,
2013-06-09 05:15:00,63.0,60.4,29.79,South,180,4.0,5.4,91,0.00,,,0.21,WUHU216HW,2013-06-09 10:15:00,
2013-06-09 05:20:00,63.0,60.4,29.80,South,180,4.0,5.4,91,0.00,,,0.21,WUHU216HW,2013-06-09 10:20:00,
2013-06-09 05:25:00,63.0,60.4,29.80,South,180,5.4,5.4,91,0.00,,,0.21,WUHU216HW,2013-06-09 10:25:00,
2013-06-09 05:30:00,63.0,60.4,29.80,South,180,5.1,5.4,91,0.00,,,0.21,WUHU216HW,2013-06-09 10:30:00,
2013-06-09 05:35:00,63.2,60.6,29.80,South,180,6.7,6.7,91,0.00,,,0.21,WUHU216HW,2013-06-09 10:35:00,
2013-06-09 05:40:00,63.0,60.7,29.80,SSW,203,3.4,6.7,92,0.00,,,0.21,WUHU216HW,2013-06-09 10:40:00,
2013-06-09 05:45:00,63.0,60.7,29.80,South,180,4.3,6.7,92,0.00,,,0.21,WUHU216HW,2013-06-09 10:45:00,
2013-06-09 05:50:00,63.0,60.7,29.81,South,180,7.4,7.4,92,0.01,,,0.21,WUHU216HW,2013-06-09 10:50:00,
2013-06-09 05:55:00,63.2,60.8,29.81,SW,225,4.7,7.4,92,0.01,,,0.22,WUHU216HW,2013-06-09 10:55:00,
2013-06-09 06:00:00,63.2,60.8,29.83,South,180,5.4,7.4,92,0.01,,,0.22,WUHU216HW,2013-06-09 11:00:00,
2013-06-09 06:05:00,63.0,60.7,29.83,SW,225,8.5,8.5,92,0.02,,,0.23,WUHU216HW,2013-06-09 11:05:00,
2013-06-09 06:10:00,63.0,60.7,29.84,SSW,203,5.4,8.5,92,0.03,,,0.23,WUHU216HW,2013-06-09 11:10:00,
2013-06-09 06:15:00,62.6,60.3,29.83,SW,225,11.4,11.4,92,0.06,,,0.25,WUHU216HW,2013-06-09 11:15:00,
2013-06-09 06:20:00,62.6,60.3,29.83,South,180,6.3,11.4,92,0.07,,,0.28,WUHU216HW,2013-06-09 11:20:00,
2013-06-09 06:25:00,62.5,60.1,29.83,SSW,203,6.0,11.4,92,0.08,,,0.29,WUHU216HW,2013-06-09 11:25:00,
2013-06-09 06:30:00,62.3,59.9,29.83,SSW,203,6.5,6.5,92,0.12,,,0.31,WUHU216HW,2013-06-09 11:30:00,
2013-06-09 06:35:00,62.1,59.8,29.83,SSW,203,5.4,6.5,92,0.13,,,0.33,WUHU216HW,2013-06-09 11:35:00,
2013-06-09 06:40:00,61.9,59.6,29.81,South,180,10.7,10.7,92,0.14,,,0.35,WUHU216HW,2013-06-09 11:40:00,
2013-06-09 06:45:00,61.9,59.6,29.81,SSW,203,5.8,10.7,92,0.14,,,0.35,WUHU216HW,2013-06-09 11:45:00,
2013-06-09 06:50:00,61.6,59.2,29.81,South,180,7.6,10.7,92,0.14,,,0.36,WUHU216HW,2013-06-09 11:50:00,
2013-06-09 06:55:00,61.4,59.0,29.81,SSW,203,7.4,9.4,92,0.14,,,0.36,WUHU216HW,2013-06-09 11:55:00,
2013-06-09 07:00:00,61.2,58.9,29.81,SSW,203,6.9,7.6,92,0.14,,,0.37,WUHU216HW,2013-06-09 12:00:00,
2013-06-09 07:05:00,61.0,58.7,29.81,SSW,203,6.9,7.4,92,0.13,,,0.37,WUHU216HW,2013-06-09 12:05:00,
2013-06-09 07:10:00,60.8,58.5,29.81,South,180,8.9,8.9,92,0.11,,,0.37,WUHU216HW,2013-06-09 12:10:00,
2013-06-09 07:15:00,60.8,58.5,29.81,South,180,7.4,8.9,92,0.10,,,0.37,WUHU216HW,2013-06-09 12:15:00,
2013-06-09 07:20:00,60.8,58.5,29.81,South,180,8.1,8.9,92,0.09,,,0.37,WUHU216HW,2013-06-09 12:20:00,
2013-06-09 07:25:00,60.8,58.5,29.80,SSW,203,5.1,8.1,92,0.06,,,0.37,WUHU216HW,2013-06-09 12:25:00,
2013-06-09 07:30:00,60.7,58.3,29.80,South,180,4.7,5.1,92,0.05,,,0.38,WUHU216HW,2013-06-09 12:30:00,
2013-06-09 07:35:00,60.8,58.5,29.80,SSW,203,9.2,9.2,92,0.04,,,0.38,WUHU216HW,2013-06-09 12:35:00,
2013-06-09 07:40:00,60.8,58.5,29.81,South,180,3.8,9.2,92,0.03,,,0.38,WUHU216HW,2013-06-09 12:40:00,
2013-06-09 07:45:00,60.8,58.5,29.81,South,180,6.5,9.2,92,0.02,,,0.38,WUHU216HW,2013-06-09 12:45:00,
2013-06-09 07:50:00,61.0,58.7,29.81,South,180,5.1,6.5,92,0.02,,,0.38,WUHU216HW,2013-06-09 12:50:00,
2013-06-09 07:55:00,61.0,58.7,29.81,SSE,158,6.9,6.9,92,0.02,,,0.38,WUHU216HW,2013-06-09 12:55:00,
2013-06-09 08:00:00,61.2,58.9,29.81,SSW,203,8.5,8.5,92,0.01,,,0.38,WUHU216HW,2013-06-09 13:00:00,
2013-06-09 08:05:00,61.4,59.0,29.80,SSW,203,7.2,8.5,92,0.01,,,0.38,WUHU216HW,2013-06-09 13:05:00,
2013-06-09 08:10:00,61.4,59.0,29.80,SSW,203,6.9,7.2,92,0.01,,,0.38,WUHU216HW,2013-06-09 13:10:00,
2013-06-09 08:15:00,61.6,59.2,29.80,South,180,5.4,7.2,92,0.01,,,0.38,WUHU216HW,2013-06-09 13:15:00,
2013-06-09 08:20:00,61.7,59.4,29.80,South,180,5.4,6.9,92,0.01,,,0.38,WUHU216HW,2013-06-09 13:20:00,
2013-06-09 08:25:00,61.7,59.4,29.80,SSW,203,6.5,6.5,92,0.00,,,0.38,WUHU216HW,2013-06-09 13:25:00,
2013-06-09 08:30:00,61.7,59.4,29.80,SW,225,6.9,6.9,92,0.00,,,0.38,WUHU216HW,2013-06-09 13:30:00,
2013-06-09 08:35:00,61.9,59.6,29.79,South,180,6.7,6.9,92,0.00,,,0.38,WUHU216HW,2013-06-09 13:35:00,
2013-06-09 08:40:00,61.9,59.6,29.79,South,180,5.4,6.9,92,0.00,,,0.38,WUHU216HW,2013-06-09 13:40:00,
2013-06-09 08:45:00,62.3,59.9,29.79,South,180,8.5,8.5,92,0.00,,,0.38,WUHU216HW,2013-06-09 13:45:00,
2013-06-09 08:50:00,62.3,59.7,29.80,SSW,203,5.6,8.5,91,0.00,,,0.38,WUHU216HW,2013-06-09 13:50:00,
2013-06-09 08:55:00,62.6,60.0,29.80,SSW,203,6.7,8.5,91,0.00,,,0.38,WUHU216HW,2013-06-09 13:55:00,
2013-06-09 09:00:00,62.8,60.2,29.80,SW,225,4.7,6.7,91,0.00,,,0.38,WUHU216HW,2013-06-09 14:00:00,
2013-06-09 09:05:00,63.0,60.4,29.80,WSW,248,4.0,6.7,91,0.00,,,0.38,WUHU216HW,2013-06-09 14:05:00,
2013-06-09 09:10:00,63.2,60.3,29.80,SSW,203,4.5,4.7,90,0.00,,,0.38,WUHU216HW,2013-06-09 14:10:00,
2013-06-09 09:15:00,63.4,60.5,29.80,SSW,203,3.4,4.5,90,0.00,,,0.38,WUHU216HW,2013-06-09 14:15:00,
2013-06-09 09:20:00,63.7,60.8,29.80,SSW,203,4.7,4.7,90,0.00,,,0.38,WUHU216HW,2013-06-09 14:20:00,
2013-06-09 09:25:00,64.3,60.7,29.81,South,180,4.7,5.4,88,0.00,,,0.38,WUHU216HW,2013-06-09 14:25:00,
2013-06-09 09:30:00,63.9,60.3,29.80,South,180,4.7,5.4,88,0.00,,,0.38,WUHU216HW,2013-06-09 14:30:00,
2013-06-09 09:35:00,63.9,60.0,29.80,WSW,248,5.4,5.4,87,0.00,,,0.38,WUHU216HW,2013-06-09 14:35:00,
2013-06-09 09:40:00,64.6,60.7,29.80,SSW,203,3.4,6.3,87,0.00,,,0.38,WUHU216HW,2013-06-09 14:40:00,
2013-06-09 09:45:00,64.6,60.0,29.80,SW,225,3.6,6.3,85,0.00,,,0.38,WUHU216HW,2013-06-09 14:45:00,
2013-06-09 09:50:00,65.0,60.7,29.80,SW,225,5.1,5.1,86,0.00,,,0.38,WUHU216HW,2013-06-09 14:50:00,
2013-06-09 09:55:00,65.2,60.6,29.80,SSW,203,6.9,8.1,85,0.00,,,0.38,WUHU216HW,2013-06-09 14:55:00,
2013-06-09 10:00:00,65.0,60.7,29.81,SSW,203,9.8,9.8,86,0.00,,,0.38,WUHU216HW,2013-06-09 15:00:00,
2013-06-09 10:05:00,64.8,60.6,29.81,SSW,203,4.9,9.8,86,0.00,,,0.38,WUHU216HW,2013-06-09 15:05:00,
2013-06-09 10:10:00,64.4,60.6,29.80,SW,225,4.9,9.8,87,0.00,,,0.38,WUHU216HW,2013-06-09 15:10:00,
2013-06-09 10:15:00,64.8,60.8,29.80,SSW,203,7.2,7.2,87,0.00,,,0.38,WUHU216HW,2013-06-09 15:15:00,
2013-06-09 10:20:00,66.4,62.4,29.80,SW,225,6.5,7.2,87,0.00,,,0.38,WUHU216HW,2013-06-09 15:20:00,
2013-06-09 10:25:00,67.5,62.8,29.80,WSW,248,5.8,7.2,85,0.00,,,0.38,WUHU216HW,2013-06-09 15:25:00,
2013-06-09 10:30:00,68.0,63.7,29.79,SW,225,4.0,6.5,86,0.00,,,0.38,WUHU216HW,2013-06-09 15:30:00,
2013-06-09 10:35:00,68.9,62.9,29.79,SSW,203,6.0,6.0,81,0.00,,,0.38,WUHU216HW,2013-06-09 15:35:00,
2013-06-09 10:40:00,69.3,63.2,29.80,SW,225,6.0,6.0,81,0.00,,,0.38,WUHU216HW,2013-06-09 15:40:00,
2013-06-09 10:45:00,69.8,63.7,29.79,SSW,203,6.7,6.7,81,0.00,,,0.38,WUHU216HW,2013-06-09 15:45:00,
2013-06-09 10:50:00,70.6,63.7,29.79,West,270,2.9,6.7,79,0.00,,,0.38,WUHU216HW,2013-06-09 15:50:00,
2013-06-09 10:55:00,70.6,63.7,29.79,South,180,4.5,6.7,79,0.00,,,0.38,WUHU216HW,2013-06-09 15:55:00,
2013-06-09 11:00:00,71.8,64.6,29.79,South,180,8.3,8.3,78,0.00,,,0.38,WUHU216HW,2013-06-09 16:00:00,
2013-06-09 11:05:00,71.8,63.8,29.79,West,270,2.5,8.3,76,0.00,,,0.38,WUHU216HW,2013-06-09 16:05:00,
2013-06-09 11:10:00,72.4,64.0,29.79,SW,225,6.9,8.3,75,0.00,,,0.38,WUHU216HW,2013-06-09 16:10:00,
2013-06-09 11:15:00,72.4,64.4,29.79,South,180,3.6,6.9,76,0.00,,,0.38,WUHU216HW,2013-06-09 16:15:00,
2013-06-09 11:20:00,72.9,64.9,29.79,SSW,203,8.5,8.5,76,0.00,,,0.38,WUHU216HW,2013-06-09 16:20:00,
2013-06-09 11:25:00,73.1,64.4,29.79,SW,225,5.4,8.5,74,0.00,,,0.38,WUHU216HW,2013-06-09 16:25:00,
2013-06-09 11:30:00,73.4,63.5,29.79,WSW,248,6.9,8.5,71,0.00,,,0.38,WUHU216HW,2013-06-09 16:30:00,
2013-06-09 11:35:00,73.1,62.8,29.79,SW,225,2.5,6.9,70,0.00,,,0.38,WUHU216HW,2013-06-09 16:35:00,
2013-06-09 11:40:00,73.1,62.4,29.79,South,180,8.5,8.5,69,0.00,,,0.38,WUHU216HW,2013-06-09 16:40:00,
2013-06-09 11:45:00,73.1,61.5,29.79,South,180,5.1,8.5,67,0.00,,,0.38,WUHU216HW,2013-06-09 16:45:00,
2013-06-09 11:50:00,73.3,62.1,29.79,SSW,203,4.0,8.5,68,0.00,,,0.38,WUHU216HW,2013-06-09 16:50:00,
2013-06-09 11:55:00,74.0,62.4,29.79,SSE,158,5.4,5.8,67,0.00,,,0.38,WUHU216HW,2013-06-09 16:55:00,
2013-06-09 12:00:00,74.7,64.7,29.79,WSW,248,4.7,5.8,71,0.00,,,0.38,WUHU216HW,2013-06-09 17:00:00,
2013-06-09 12:05:00,74.7,62.6,29.78,West,270,7.8,7.8,66,0.00,,,0.38,WUHU216HW,2013-06-09 17:05:00,
2013-06-09 12:10:00,74.9,61.8,29.79,WSW,248,4.9,7.8,64,0.00,,,0.38,WUHU216HW,2013-06-09 17:10:00,
2013-06-09 12:15:00,75.1,62.5,29.78,SSW,203,3.1,5.4,65,0.00,,,0.38,WUHU216HW,2013-06-09 17:15:00,
2013-06-09 12:20:00,75.2,62.6,29.78,South,180,4.7,4.9,65,0.00,,,0.38,WUHU216HW,2013-06-09 17:20:00,
2013-06-09 12:25:00,75.6,60.9,29.78,SW,225,5.6,5.6,60,0.00,,,0.38,WUHU216HW,2013-06-09 17:25:00,
2013-06-09 12:30:00,75.2,61.4,29.78,SW,225,3.8,5.6,62,0.00,,,0.38,WUHU216HW,2013-06-09 17:30:00,
2013-06-09 12:34:00,76.0,60.1,29.78,NNW,338,5.6,5.6,58,0.00,,,0.38,WUHU216HW,2013-06-09 17:34:00,
2013-06-09 12:39:00,76.0,59.6,29.78,SW,225,6.0,6.0,57,0.00,,,0.38,WUHU216HW,2013-06-09 17:39:00,
2013-06-09 12:45:00,75.4,59.7,29.78,SSW,203,3.1,6.0,58,0.00,,,0.38,WUHU216HW,2013-06-09 17:45:00,
2013-06-09 12:50:00,76.0,61.1,29.78,West,270,4.5,4.5,60,0.00,,,0.38,WUHU216HW,2013-06-09 17:50:00,
2013-06-09 12:54:00,76.7,59.2,29.78,SSW,203,5.4,5.4,55,0.00,,,0.38,WUHU216HW,2013-06-09 17:54:00,
2013-06-09 12:59:00,76.9,58.4,29.78,SW,225,6.9,6.9,53,0.00,,,0.38,WUHU216HW,2013-06-09 17:59:00,
2013-06-09 13:04:00,76.5,57.6,29.78,West,270,5.8,6.9,52,0.00,,,0.38,WUHU216HW,2013-06-09 18:04:00,
2013-06-09 13:09:00,77.0,58.1,29.78,NNW,338,4.3,6.9,52,0.00,,,0.38,WUHU216HW,2013-06-09 18:09:00,
2013-06-09 13:14:00,77.8,58.8,29.78,South,180,1.1,5.8,52,0.00,,,0.38,WUHU216HW,2013-06-09 18:14:00,
2013-06-09 13:19:00,78.5,59.4,29.77,SW,225,2.7,4.3,52,0.00,,,0.38,WUHU216HW,2013-06-09 18:19:00,
2013-06-09 13:24:00,77.9,59.4,29.77,WSW,248,2.5,2.7,53,0.00,,,0.38,WUHU216HW,2013-06-09 18:24:00,
2013-06-09 13:29:00,76.9,57.4,29.77,WSW,248,5.8,5.8,51,0.00,,,0.38,WUHU216HW,2013-06-09 18:29:00,
2013-06-09 13:34:00,77.9,57.2,29.77,WNW,293,1.1,5.8,49,0.00,,,0.38,WUHU216HW,2013-06-09 18:34:00,
2013-06-09 13:39:00,78.8,57.4,29.77,WSW,248,2.2,5.8,48,0.00,,,0.38,WUHU216HW,2013-06-09 18:39:00,
2013-06-09 13:44:00,78.7,56.1,29.77,West,270,4.3,5.4,46,0.00,,,0.38,WUHU216HW,2013-06-09 18:44:00,
2013-06-09 13:49:00,78.1,55.0,29.77,North,0,2.7,5.4,45,0.00,,,0.38,WUHU216HW,2013-06-09 18:49:00,
2013-06-09 13:54:00,78.7,55.4,29.76,WSW,248,5.8,5.8,45,0.00,,,0.38,WUHU216HW,2013-06-09 18:54:00,
2013-06-09 13:59:00,78.8,55.6,29.76,North,0,4.0,5.8,45,0.00,,,0.38,WUHU216HW,2013-06-09 18:59:00,
2013-06-09 14:04:00,78.8,55.0,29.76,WSW,248,5.6,5.6,44,0.00,,,0.38,WUHU216HW,2013-06-09 19:04:00,
2013-06-09 14:09:00,78.8,56.9,29.76,NW,315,3.4,5.6,47,0.00,,,0.38,WUHU216HW,2013-06-09 19:09:00,
2013-06-09 14:14:00,77.4,56.2,29.76,WSW,248,0.4,5.6,48,0.00,,,0.38,WUHU216HW,2013-06-09 19:14:00,
2013-06-09 14:19:00,78.1,56.8,29.76,NNW,338,1.8,4.0,48,0.00,,,0.38,WUHU216HW,2013-06-09 19:19:00,
2013-06-09 14:24:00,78.1,55.6,29.76,SSW,203,3.8,3.8,46,0.00,,,0.38,WUHU216HW,2013-06-09 19:24:00,
2013-06-09 14:29:00,79.2,56.5,29.76,SW,225,4.0,4.0,46,0.00,,,0.38,WUHU216HW,2013-06-09 19:29:00,
2013-06-09 14:34:00,78.7,55.4,29.76,SW,225,10.1,10.1,45,0.00,,,0.38,WUHU216HW,2013-06-09 19:34:00,
2013-06-09 14:39:00,78.1,56.8,29.76,NNE,23,4.3,10.1,48,0.00,,,0.38,WUHU216HW,2013-06-09 19:39:00,
2013-06-09 14:44:00,79.6,57.5,29.76,NE,45,2.0,10.1,47,0.00,,,0.38,WUHU216HW,2013-06-09 19:44:00,
2013-06-09 14:49:00,79.6,56.3,29.76,South,180,3.6,3.8,45,0.00,,,0.38,WUHU216HW,2013-06-09 19:49:00,
2013-06-09 14:54:00,80.1,58.0,29.75,North,0,1.8,3.6,47,0.00,,,0.38,WUHU216HW,2013-06-09 19:54:00,
2013-06-09 14:59:00,79.6,56.3,29.75,North,0,4.3,7.4,45,0.00,,,0.38,WUHU216HW,2013-06-09 19:59:00,
2013-06-09 15:04:00,79.9,56.0,29.75,SW,225,4.0,7.4,44,0.00,,,0.38,WUHU216HW,2013-06-09 20:04:00,
2013-06-09 15:09:00,79.4,55.5,29.75,WSW,248,4.7,4.7,44,0.00,,,0.38,WUHU216HW,2013-06-09 20:09:00,
2013-06-09 15:14:00,80.3,56.4,29.75,WSW,248,6.0,6.0,44,0.00,,,0.38,WUHU216HW,2013-06-09 20:14:00,
2013-06-09 15:19:00,79.7,55.8,29.75,North,0,4.0,6.0,44,0.00,,,0.38,WUHU216HW,2013-06-09 20:19:00,
2013-06-09 15:24:00,80.3,56.9,29.75,SSE,158,3.4,6.0,45,0.00,,,0.38,WUHU216HW,2013-06-09 20:24:00,
2013-06-09 15:29:00,80.8,57.4,29.75,SSW,203,4.0,4.0,45,0.00,,,0.38,WUHU216HW,2013-06-09 20:29:00,
2013-06-09 15:34:00,81.2,56.5,29.75,NW,315,4.3,4.3,43,0.00,,,0.38,WUHU216HW,2013-06-09 20:34:00,
2013-06-09 15:39:00,80.6,55.5,29.75,SW,225,2.5,4.3,42,0.00,,,0.38,WUHU216HW,2013-06-09 20:39:00,
2013-06-09 15:44:00,80.8,56.8,29.75,North,0,3.1,4.3,44,0.00,,,0.38,WUHU216HW,2013-06-09 20:44:00,
2013-06-09 15:49:00,81.4,57.9,29.75,NNW,338,1.8,3.4,45,0.00,,,0.38,WUHU216HW,2013-06-09 20:49:00,
2013-06-09 15:54:00,81.2,56.5,29.75,North,0,3.8,3.8,43,0.00,,,0.38,WUHU216HW,2013-06-09 20:54:00,
2013-06-09 15:59:00,81.4,58.5,29.75,West,270,5.6,5.6,46,0.00,,,0.38,WUHU216HW,2013-06-09 20:59:00,
2013-06-09 16:04:00,81.0,57.0,29.75,NW,315,4.9,5.6,44,0.00,,,0.38,WUHU216HW,2013-06-09 21:04:00,
2013-06-09 16:09:00,80.5,55.9,29.75,SW,225,2.5,5.6,43,0.00,,,0.38,WUHU216HW,2013-06-09 21:09:00,
2013-06-09 16:14:00,81.0,56.3,29.74,WSW,248,7.4,7.4,43,0.00,,,0.38,WUHU216HW,2013-06-09 21:14:00,
2013-06-09 16:19:00,81.2,55.3,29.74,NW,315,4.0,7.4,41,0.00,,,0.38,WUHU216HW,2013-06-09 21:19:00,
2013-06-09 16:24:00,82.1,56.7,29.74,North,0,2.5,7.4,42,0.00,,,0.38,WUHU216HW,2013-06-09 21:24:00,
2013-06-09 16:29:00,82.4,57.1,29.74,NNW,338,5.8,5.8,42,0.00,,,0.38,WUHU216HW,2013-06-09 21:29:00,
2013-06-09 16:34:00,81.7,55.8,29.74,NNW,338,3.4,5.8,41,0.00,,,0.38,WUHU216HW,2013-06-09 21:34:00,
2013-06-09 16:39:00,81.4,56.1,29.74,SSE,158,0.9,5.8,42,0.00,,,0.38,WUHU216HW,2013-06-09 21:39:00,
2013-06-09 16:44:00,80.8,56.2,29.74,NW,315,3.4,3.4,43,0.00,,,0.38,WUHU216HW,2013-06-09 21:44:00,
2013-06-09 16:49:00,81.2,57.7,29.74,NNW,338,6.0,6.0,45,0.00,,,0.38,WUHU216HW,2013-06-09 21:49:00,
2013-06-09 16:54:00,82.8,57.3,29.74,NW,315,2.5,6.0,42,0.00,,,0.38,WUHU216HW,2013-06-09 21:54:00,
2013-06-09 16:59:00,81.7,57.0,29.74,NW,315,0.4,2.5,43,0.00,,,0.38,WUHU216HW,2013-06-09 21:59:00,
2013-06-09 17:04:00,81.5,58.1,29.74,WSW,248,2.0,2.5,45,0.00,,,0.38,WUHU216HW,2013-06-09 22:04:00,
2013-06-09 17:09:00,80.3,56.9,29.74,WSW,248,0.9,2.5,45,0.00,,,0.38,WUHU216HW,2013-06-09 22:09:00,
2013-06-09 17:14:00,80.3,56.4,29.74,NNW,338,6.7,6.7,44,0.00,,,0.38,WUHU216HW,2013-06-09 22:14:00,
2013-06-09 17:19:00,80.6,57.9,29.73,NNW,338,2.9,6.7,46,0.00,,,0.38,WUHU216HW,2013-06-09 22:19:00,
2013-06-09 17:24:00,79.6,56.3,29.74,WNW,293,4.5,6.7,45,0.00,,,0.38,WUHU216HW,2013-06-09 22:24:00,
2013-06-09 17:29:00,78.8,56.3,29.74,WSW,248,2.0,4.5,46,0.00,,,0.38,WUHU216HW,2013-06-09 22:29:00,
2013-06-09 17:34:00,78.5,56.5,29.74,NNW,338,1.8,4.5,47,0.00,,,0.38,WUHU216HW,2013-06-09 22:34:00,
2013-06-09 17:39:00,78.1,56.8,29.73,North,0,1.8,3.8,48,0.00,,,0.38,WUHU216HW,2013-06-09 22:39:00,
2013-06-09 17:44:00,78.1,57.4,29.73,NNW,338,2.7,2.7,49,0.00,,,0.38,WUHU216HW,2013-06-09 22:44:00,
2013-06-09 17:49:00,78.5,57.8,29.73,North,0,2.7,3.1,49,0.00,,,0.38,WUHU216HW,2013-06-09 22:49:00,
2013-06-09 17:54:00,79.2,57.8,29.73,North,0,2.2,3.1,48,0.00,,,0.38,WUHU216HW,2013-06-09 22:54:00,
2013-06-09 17:59:00,79.6,58.7,29.73,North,0,3.4,3.4,49,0.00,,,0.38,WUHU216HW,2013-06-09 22:59:00,
2013-06-09 18:04:00,79.9,59.0,29.73,North,0,2.2,3.4,49,0.00,,,0.38,WUHU216HW,2013-06-09 23:04:00,
2013-06-09 18:09:00,78.1,58.1,29.73,NW,315,1.8,3.4,50,0.00,,,0.38,WUHU216HW,2013-06-09 23:09:00,
2013-06-09 18:14:00,77.2,58.2,29.73,NNW,338,1.1,2.5,52,0.00,,,0.38,WUHU216HW,2013-06-09 23:14:00,
2013-06-09 18:19:00,77.0,60.1,29.73,North,0,3.1,3.1,56,0.00,,,0.38,WUHU216HW,2013-06-09 23:19:00,
2013-06-09 18:24:00,76.3,59.4,29.74,North,0,1.1,3.1,56,0.00,,,0.38,WUHU216HW,2013-06-09 23:24:00,
2013-06-09 18:29:00,75.8,59.5,29.74,NNW,338,1.6,3.1,57,0.00,,,0.38,WUHU216HW,2013-06-09 23:29:00,
2013-06-09 18:34:00,75.2,60.9,29.74,North,0,9.8,9.8,61,0.00,,,0.38,WUHU216HW,2013-06-09 23:34:00,
2013-06-09 18:39:00,74.7,61.3,29.74,North,0,4.5,9.8,63,0.00,,,0.38,WUHU216HW,2013-06-09 23:39:00,
2013-06-09 18:44:00,74.5,61.9,29.74,North,0,4.0,9.8,65,0.00,,,0.38,WUHU216HW,2013-06-09 23:44:00,
2013-06-09 18:49:00,74.2,61.7,29.74,NNW,338,2.2,4.5,65,0.00,,,0.38,WUHU216HW,2013-06-09 23:49:00,
2013-06-09 18:54:00,74.9,62.3,29.74,NE,45,6.5,6.7,65,0.00,,,0.38,WUHU216HW,2013-06-09 23:54:00,
2013-06-09 18:59:00,75.2,62.2,29.75,NNE,23,7.8,7.8,64,0.00,,,0.38,WUHU216HW,2013-06-09 23:59:00,
2013-06-09 19:04:00,74.7,61.3,29.75,North,0,6.3,7.8,63,0.00,,,0.38,WUHU216HW,2013-06-10 00:04:00,
2013-06-09 19:09:00,74.2,61.7,29.75,NNW,338,4.7,7.8,65,0.00,,,0.38,WUHU216HW,2013-06-10 00:09:00,
2013-06-09 19:14:00,74.7,61.7,29.75,North,0,5.4,7.8,64,0.00,,,0.38,WUHU216HW,2013-06-10 00:14:00,
2013-06-09 19:19:00,74.5,61.6,29.75,NNW,338,3.6,5.4,64,0.00,,,0.38,WUHU216HW,2013-06-10 00:19:00,
2013-06-09 19:24:00,72.9,61.3,29.75,North,0,2.5,6.3,67,0.00,,,0.38,WUHU216HW,2013-06-10 00:24:00,
2013-06-09 19:29:00,72.4,60.8,29.75,NNW,338,3.1,6.3,67,0.00,,,0.38,WUHU216HW,2013-06-10 00:29:00,
2013-06-09 19:34:00,72.4,61.2,29.75,NNW,338,2.9,3.1,68,0.00,,,0.38,WUHU216HW,2013-06-10 00:34:00,
2013-06-09 19:39:00,72.0,61.3,29.76,North,0,4.0,4.0,69,0.00,,,0.38,WUHU216HW,2013-06-10 00:39:00,
2013-06-09 19:44:00,71.8,60.7,29.76,NNE,23,6.9,6.9,68,0.00,,,0.38,WUHU216HW,2013-06-10 00:44:00,
2013-06-09 19:49:00,71.6,60.5,29.76,North,0,4.0,6.9,68,0.00,,,0.38,WUHU216HW,2013-06-10 00:49:00,
2013-06-09 19:54:00,71.3,60.1,29.76,North,0,3.8,6.9,68,0.00,,,0.38,WUHU216HW,2013-06-10 00:54:00,
2013-06-09 19:59:00,71.1,60.4,29.76,NNE,23,2.9,3.8,69,0.00,,,0.38,WUHU216HW,2013-06-10 00:59:00,
2013-06-09 20:04:00,70.9,60.2,29.76,North,0,2.9,3.8,69,0.00,,,0.38,WUHU216HW,2013-06-10 01:04:00,
2013-06-09 20:09:00,70.9,60.2,29.76,North,0,2.0,2.9,69,0.00,,,0.38,WUHU216HW,2013-06-10 01:09:00,
2013-06-09 20:14:00,70.6,59.9,29.76,North,0,1.8,2.9,69,0.00,,,0.38,WUHU216HW,2013-06-10 01:14:00,
2013-06-09 20:19:00,70.2,59.9,29.76,North,0,2.2,2.2,70,0.00,,,0.38,WUHU216HW,2013-06-10 01:19:00,
2013-06-09 20:24:00,70.0,59.8,29.76,North,0,1.8,2.2,70,0.00,,,0.38,WUHU216HW,2013-06-10 01:24:00,
2013-06-09 20:29:00,69.3,59.9,29.76,North,0,1.6,2.2,72,0.00,,,0.38,WUHU216HW,2013-06-10 01:29:00,
2013-06-09 20:34:00,68.8,59.8,29.76,North,0,1.8,1.8,73,0.00,,,0.38,WUHU216HW,2013-06-10 01:34:00,
2013-06-09 20:39:00,68.6,59.6,29.76,North,0,1.3,1.8,73,0.00,,,0.38,WUHU216HW,2013-06-10 01:39:00,
2013-06-09 20:44:00,68.2,59.7,29.76,North,0,3.6,3.6,74,0.00,,,0.38,WUHU216HW,2013-06-10 01:44:00,
2013-06-09 20:49:00,68.0,59.5,29.76,North,0,1.8,3.6,74,0.00,,,0.38,WUHU216HW,2013-06-10 01:49:00,
2013-06-09 20:54:00,68.0,59.5,29.76,North,0,2.2,3.6,74,0.00,,,0.38,WUHU216HW,2013-06-10 01:54:00,
2013-06-09 20:59:00,67.7,59.1,29.76,North,0,2.7,3.8,74,0.00,,,0.38,WUHU216HW,2013-06-10 01:59:00,
2013-06-09 21:04:00,67.5,59.0,29.77,North,0,2.9,3.8,74,0.00,,,0.38,WUHU216HW,2013-06-10 02:04:00,
2013-06-09 21:09:00,67.3,58.8,29.77,NNW,338,4.9,4.9,74,0.00,,,0.38,WUHU216HW,2013-06-10 02:09:00,
2013-06-09 21:14:00,66.8,58.6,29.77,North,0,3.8,4.9,75,0.00,,,0.38,WUHU216HW,2013-06-10 02:14:00,
2013-06-09 21:19:00,66.6,58.4,29.77,North,0,2.5,3.8,75,0.00,,,0.38,WUHU216HW,2013-06-10 02:19:00,
2013-06-09 21:24:00,66.6,58.1,29.77,North,0,3.4,3.8,74,0.00,,,0.38,WUHU216HW,2013-06-10 02:24:00,
2013-06-09 21:29:00,66.6,58.1,29.77,NNW,338,1.6,3.8,74,0.00,,,0.38,WUHU216HW,2013-06-10 02:29:00,
2013-06-09 21:34:00,66.4,57.9,29.77,NNW,338,0.7,3.8,74,0.00,,,0.38,WUHU216HW,2013-06-10 02:34:00,
2013-06-09 21:39:00,66.4,57.9,29.78,North,0,1.8,1.8,74,0.00,,,0.38,WUHU216HW,2013-06-10 02:39:00,
2013-06-09 21:44:00,65.9,57.7,29.78,North,0,0.0,1.8,75,0.00,,,0.38,WUHU216HW,2013-06-10 02:44:00,
2013-06-09 21:49:00,65.5,57.3,29.78,NNW,338,0.0,1.1,75,0.00,,,0.38,WUHU216HW,2013-06-10 02:49:00,
2013-06-09 21:54:00,65.3,57.2,29.78,NNW,338,0.2,0.2,75,0.00,,,0.38,WUHU216HW,2013-06-10 02:54:00,
2013-06-09 21:59:00,65.2,57.1,29.78,NNW,338,0.4,0.4,75,0.00,,,0.38,WUHU216HW,2013-06-10 02:59:00,
2013-06-09 22:04:00,65.0,56.9,29.78,NNW,338,0.0,0.4,75,0.00,,,0.38,WUHU216HW,2013-06-10 03:04:00,
2013-06-09 22:09:00,64.8,56.7,29.79,NNW,338,0.0,0.4,75,0.00,,,0.38,WUHU216HW,2013-06-10 03:09:00,
2013-06-09 22:14:00,64.4,56.7,29.79,NW,315,0.0,0.2,76,0.00,,,0.38,WUHU216HW,2013-06-10 03:14:00,
2013-06-09 22:19:00,64.6,56.9,29.79,NNW,338,0.4,0.4,76,0.00,,,0.38,WUHU216HW,2013-06-10 03:19:00,
2013-06-09 22:24:00,64.6,57.3,29.79,NNW,338,0.0,0.4,77,0.00,,,0.38,WUHU216HW,2013-06-10 03:24:00,
2013-06-09 22:29:00,64.4,57.1,29.79,NW,315,0.0,0.4,77,0.00,,,0.38,WUHU216HW,2013-06-10 03:29:00,
2013-06-09 22:34:00,64.1,57.4,29.79,NW,315,0.0,0.0,79,0.00,,,0.38,WUHU216HW,2013-06-10 03:34:00,
2013-06-09 22:39:00,63.7,56.7,29.80,NW,315,0.0,0.0,78,0.00,,,0.38,WUHU216HW,2013-06-10 03:39:00,
2013-06-09 22:44:00,63.5,56.9,29.80,NW,315,0.0,0.0,79,0.00,,,0.38,WUHU216HW,2013-06-10 03:44:00,
2013-06-09 22:49:00,63.2,56.5,29.80,WNW,293,0.2,0.2,79,0.00,,,0.38,WUHU216HW,2013-06-10 03:49:00,
2013-06-09 22:54:00,63.0,56.3,29.80,SW,225,0.0,0.2,79,0.00,,,0.38,WUHU216HW,2013-06-10 03:54:00,
2013-06-09 22:59:00,62.6,56.0,29.79,SW,225,0.0,0.2,79,0.00,,,0.38,WUHU216HW,2013-06-10 03:59:00,
2013-06-09 23:01:00,62.5,55.8,29.79,WNW,293,0.0,0.2,79,0.00,,,0.38,WUHU216HW,2013-06-10 04:01:00,
2013-06-09 23:02:00,62.5,55.8,29.79,WNW,293,0.0,0.0,79,0.00,,,0.38,WUHU216HW,2013-06-10 04:02:00,
2013-06-09 23:07:00,62.3,56.0,29.79,NNW,338,0.4,0.4,80,0.00,,,0.38,WUHU216HW,2013-06-10 04:07:00,
2013-06-09 23:12:00,62.3,56.3,29.79,NW,315,0.0,0.4,81,0.00,,,0.38,WUHU216HW,2013-06-10 04:12:00,
2013-06-09 23:17:00,62.3,56.0,29.80,NW,315,0.0,0.0,80,0.00,,,0.38,WUHU216HW,2013-06-10 04:17:00,
2013-06-09 23:22:00,61.9,55.7,29.80,NW,315,0.0,0.0,80,0.00,,,0.38,WUHU216HW,2013-06-10 04:22:00,
2013-06-09 23:27:00,61.6,55.4,29.80,NW,315,0.0,0.0,80,0.00,,,0.38,WUHU216HW,2013-06-10 04:27:00,
2013-06-09 23:32:00,61.4,55.5,29.80,NW,315,0.0,0.0,81,0.00,,,0.38,WUHU216HW,2013-06-10 04:32:00,
2013-06-09 23:37:00,61.4,55.5,29.80,NNW,338,0.0,0.0,81,0.00,,,0.38,WUHU216HW,2013-06-10 04:37:00,
2013-06-09 23:42:00,61.2,56.1,29.80,NNW,338,0.0,0.0,83,0.00,,,0.38,WUHU216HW,2013-06-10 04:42:00,
2013-06-09 23:47:00,61.4,56.2,29.80,North,0,0.2,0.2,83,0.00,,,0.38,WUHU216HW,2013-06-10 04:47:00,
2013-06-09 23:52:00,61.6,56.3,29.79,North,0,0.0,0.2,83,0.00,,,0.38,WUHU216HW,2013-06-10 04:52:00,
2013-06-09 23:57:00,61.9,56.7,29.79,NNW,338,0.4,0.4,83,0.00,,,0.38,WUHU216HW,2013-06-10 04:57:00,